Time;durP1;ratioP1;P1;durP2;ratioP2;P2;SDS_P1;SDS_P2;PMS_P1;PMS_P2;Temp;Humidity;BMP_temperature;BMP_pressure;BME280_temperature;BME280_humidity;BME280_pressure;Samples;Min_cycle;Max_cycle;Signal;HPM_P1;HPM_P2
2023/01/07 00:00:46;;;;;;;16.70;12.40;;;;;;;9.96;100.00;67871.69;5004947;28;20090;-82
2023/01/07 00:03:13;;;;;;;15.93;14.05;;;;;;;9.97;100.00;67881.38;4999565;28;20042;-81
2023/01/07 00:05:39;;;;;;;17.00;11.45;;;;;;;9.97;100.00;67876.06;5004509;28;20046;-82
2023/01/07 00:08:04;;;;;;;14.73;12.90;;;;;;;9.97;100.00;67876.06;4996135;28;20104;-81
2023/01/07 00:10:29;;;;;;;13.98;12.23;;;;;;;9.97;100.00;67873.41;4995859;28;20053;-82
2023/01/07 00:12:55;;;;;;;14.88;11.18;;;;;;;;;;4996331;28;20433;-81
2023/01/07 00:15:20;;;;;;;13.47;10.93;;;;;;;10.01;100.00;67880.59;4994443;28;20426;-81
2023/01/07 00:17:45;;;;;;;19.73;12.80;;;;;;;10.03;100.00;67882.28;4996745;28;21028;-82
2023/01/07 00:20:11;;;;;;;14.77;11.60;;;;;;;10.04;100.00;67889.31;5008846;28;20043;-81
2023/01/07 00:22:36;;;;;;;14.25;12.57;;;;;;;10.04;100.00;67884.00;4995674;28;20505;-82
2023/01/07 00:25:02;;;;;;;13.10;11.70;;;;;;;10.05;100.00;67885.13;4996906;28;20030;-82
2023/01/07 00:27:27;;;;;;;13.07;10.88;;;;;;;10.06;100.00;67885.69;4995575;28;20046;-82
2023/01/07 00:29:52;;;;;;;13.43;12.02;;;;;;;10.06;100.00;67886.25;5013011;28;20038;-81
2023/01/07 00:32:18;;;;;;;13.48;10.77;;;;;;;10.08;100.00;67893.28;4996911;28;20053;-82
2023/01/07 00:34:43;;;;;;;13.75;9.82;;;;;;;;;;5002591;28;20098;-82
2023/01/07 00:39:52;;;;;;;12.98;10.75;;;;;;;10.06;100.00;67886.25;4983502;28;20045;-82
2023/01/07 00:45:01;;;;;;;15.30;10.80;;;;;;;10.07;100.00;67887.41;4999728;28;20552;-82
2023/01/07 00:47:26;;;;;;;15.90;13.23;;;;;;;10.06;100.00;67885.69;4995318;28;20034;-82
2023/01/07 00:49:52;;;;;;;16.50;13.10;;;;;;;10.07;100.00;67887.41;4995215;28;20046;-81
2023/01/07 00:52:17;;;;;;;15.13;12.50;;;;;;;;;;4993768;28;20030;-82
2023/01/07 00:54:42;;;;;;;13.82;11.07;;;;;;;10.08;100.00;67888.53;5003371;28;20104;-81
2023/01/07 00:57:11;;;;;;;16.15;10.70;;;;;;;10.08;100.00;67887.97;4994135;28;20053;-82
2023/01/07 00:59:37;;;;;;;14.05;11.50;;;;;;;;;;4995462;28;20045;-82
2023/01/07 01:02:02;;;;;;;13.80;10.40;;;;;;;;;;4992441;28;20034;-81
2023/01/07 01:04:27;;;;;;;15.85;10.73;;;;;;;;;;4996133;28;20105;-83
2023/01/07 01:06:52;;;;;;;14.65;10.82;;;;;;;10.10;100.00;67887.59;5001082;28;20042;-82
2023/01/07 01:09:19;;;;;;;12.25;10.40;;;;;;;10.10;100.00;67890.81;4996411;28;20046;-82
2023/01/07 01:11:44;;;;;;;13.57;10.60;;;;;;;10.10;100.00;67890.81;4999047;28;20042;-82
2023/01/07 01:14:10;;;;;;;10.93;8.50;;;;;;;;;;5006710;28;20046;-82
2023/01/07 01:16:35;;;;;;;10.57;7.47;;;;;;;10.10;100.00;67890.25;4993528;28;20046;-82
2023/01/07 01:19:00;;;;;;;13.85;9.48;;;;;;;10.11;100.00;67891.94;4995089;28;20767;-82
2023/01/07 01:21:26;;;;;;;12.02;8.68;;;;;;;10.11;100.00;67891.94;4993712;28;20049;-82
2023/01/07 01:23:51;;;;;;;10.32;7.68;;;;;;;10.09;100.00;67889.09;4991060;28;20386;-82
2023/01/07 01:26:17;;;;;;;11.50;7.18;;;;;;;10.08;100.00;67888.53;4992694;28;20053;-83
2023/01/07 01:28:43;;;;;;;10.48;8.05;;;;;;;10.07;100.00;67884.75;4980134;28;20062;-82
2023/01/07 01:31:08;;;;;;;13.70;9.93;;;;;;;;;;4985583;28;20690;-82
2023/01/07 01:33:34;;;;;;;9.95;8.70;;;;;;;10.02;100.00;67878.50;4991619;28;20053;-81
2023/01/07 01:36:06;;;;;;;9.95;8.13;;;;;;;10.01;100.00;67880.59;4985062;28;20144;-83
2023/01/07 01:38:32;;;;;;;10.07;7.93;;;;;;;9.99;100.00;67872.44;4984529;28;20052;-83
2023/01/07 01:40:57;;;;;;;12.65;8.75;;;;;;;;;;4980666;28;20117;-83
2023/01/07 01:43:41;;;;;;;13.18;9.38;;;;;;;9.98;100.00;67876.63;4984215;28;20050;-81
2023/01/07 01:46:40;;;;;;;12.45;8.98;;;;;;;9.98;100.00;67876.63;4976429;28;20070;-82
2023/01/07 01:49:35;;;;;;;10.73;8.10;;;;;;;9.94;100.00;67873.22;4978410;28;20396;-83
2023/01/07 01:52:10;;;;;;;10.85;7.72;;;;;;;9.93;100.00;67871.53;4978487;28;20137;-81
2023/01/07 01:54:36;;;;;;;9.30;8.30;;;;;;;9.91;100.00;67869.25;4988356;28;20074;-81
2023/01/07 01:57:03;;;;;;;10.90;7.50;;;;;;;;;;4980170;28;20066;-82
2023/01/07 01:59:29;;;;;;;10.40;7.68;;;;;;;;;;4981231;28;20520;-81
2023/01/07 02:01:55;;;;;;;11.20;8.02;;;;;;;;;;4985944;28;20100;-82
2023/01/07 02:04:23;;;;;;;12.35;9.05;;;;;;;9.92;100.00;67870.38;4991442;28;20058;-82
2023/01/07 02:07:16;;;;;;;14.18;9.10;;;;;;;9.91;100.00;67874.56;4985359;28;20050;-82
2023/01/07 02:09:42;;;;;;;10.23;8.60;;;;;;;9.92;100.00;67865.06;5005600;28;20078;-83
2023/01/07 02:12:18;;;;;;;12.18;8.38;;;;;;;;;;4976013;28;20042;-82
2023/01/07 02:14:51;;;;;;;10.82;8.52;;;;;;;9.90;100.00;67868.13;4974645;28;20047;-82
2023/01/07 02:17:29;;;;;;;11.63;8.38;;;;;;;;;;4980423;28;20566;-82
2023/01/07 02:20:14;;;;;;;9.93;8.52;;;;;;;9.89;100.00;67866.97;4980166;28;20046;-81
2023/01/07 02:22:58;;;;;;;13.55;7.47;;;;;;;9.90;100.00;67868.13;4978825;28;20641;-81
2023/01/07 02:26:00;;;;;;;9.07;7.70;;;;;;;9.89;100.00;67867.53;4975669;28;20055;-82
2023/01/07 02:28:28;;;;;;;11.43;8.43;;;;;;;;;;4970589;28;20049;-83
2023/01/07 02:31:12;;;;;;;11.00;8.53;;;;;;;;;;4979580;28;20054;-82
2023/01/07 02:33:56;;;;;;;12.52;8.07;;;;;;;;;;5001650;28;20039;-82
2023/01/07 02:36:21;;;;;;;10.33;8.00;;;;;;;;;;4940564;28;1101339;-83
2023/01/07 02:39:05;;;;;;;11.47;8.83;;;;;;;;;;4986537;28;20050;-82
2023/01/07 02:41:37;;;;;;;9.98;7.47;;;;;;;;;;4998553;28;20270;-83
2023/01/07 02:44:10;;;;;;;10.55;7.95;;;;;;;;;;4991678;28;20077;-83
2023/01/07 02:46:39;;;;;;;11.00;7.75;;;;;;;;;;4987441;28;20042;-83
2023/01/07 02:49:08;;;;;;;;;;;;;;;9.79;100.00;67855.66;4997093;28;20730;-83
2023/01/07 02:51:39;;;;;;;10.23;8.68;;;;;;;9.70;100.00;67846.56;4982737;28;20345;-83
2023/01/07 02:54:12;;;;;;;10.77;8.18;;;;;;;9.69;100.00;67845.44;4985840;28;20050;-83
2023/01/07 02:57:15;;;;;;;10.05;7.95;;;;;;;9.69;100.00;67844.84;4988511;28;20092;-83
2023/01/07 02:59:59;;;;;;;10.63;8.30;;;;;;;;;;4995125;28;20073;-83
2023/01/07 03:03:05;;;;;;;10.52;7.63;;;;;;;9.66;100.00;67847.34;4977977;28;20066;-83
2023/01/07 03:05:49;;;;;;;11.52;7.57;;;;;;;;;;4992984;28;20078;-83
2023/01/07 03:08:33;;;;;;;9.88;7.30;;;;;;;9.64;100.00;67845.09;4987480;28;20054;-83
2023/01/07 03:11:02;;;;;;;10.82;8.77;;;;;;;9.65;100.00;67846.22;4989529;28;20266;-83
2023/01/07 03:13:47;;;;;;;9.75;7.40;;;;;;;9.65;100.00;67838.25;4998525;28;20097;-83
2023/01/07 03:16:22;;;;;;;8.73;7.30;;;;;;;9.64;100.00;67837.13;4978685;28;20493;-83
2023/01/07 03:19:20;;;;;;;9.00;7.28;;;;;;;9.63;100.00;67838.63;4983088;28;20046;-83
2023/01/07 03:21:47;;;;;;;10.23;8.00;;;;;;;9.61;100.00;67836.38;4970310;28;20051;-83
2023/01/07 03:24:13;;;;;;;9.13;7.05;;;;;;;;;;4988010;28;20118;-83
2023/01/07 03:26:43;;;;;;;9.43;7.05;;;;;;;9.63;100.00;67838.63;4985837;28;20133;-83
2023/01/07 03:29:12;;;;;;;8.95;7.78;;;;;;;9.63;100.00;67838.63;4984510;28;20045;-83
2023/01/07 03:31:45;;;;;;;9.68;6.93;;;;;;;9.64;100.00;67839.78;4982102;28;20093;-82
2023/01/07 03:34:16;;;;;;;7.47;5.90;;;;;;;9.64;100.00;67839.22;4984041;28;20118;-83
2023/01/07 03:36:51;;;;;;;8.98;7.43;;;;;;;9.61;100.00;67836.38;4989917;28;20434;-83
2023/01/07 03:39:21;;;;;;;12.20;7.57;;;;;;;9.62;100.00;67837.50;4983366;28;20051;-83
2023/01/07 03:44:32;;;;;;;7.00;6.10;;;;;;;9.64;100.00;67839.78;5003616;28;20409;-83
2023/01/07 03:46:57;;;;;;;8.07;6.68;;;;;;;9.63;100.00;67838.06;4984617;28;20125;-83
2023/01/07 03:49:23;;;;;;;9.00;7.07;;;;;;;;;;4990122;28;20054;-83
2023/01/07 03:51:48;;;;;;;9.38;6.65;;;;;;;9.63;100.00;67838.63;4982520;28;20053;-82
2023/01/07 03:54:13;;;;;;;10.15;6.88;;;;;;;9.65;100.00;67838.25;5004891;28;20041;-83
2023/01/07 03:56:39;;;;;;;8.68;7.13;;;;;;;;;;4978999;28;20046;-83
2023/01/07 03:59:04;;;;;;;10.90;7.20;;;;;;;9.62;100.00;67837.50;4981487;28;20127;-83
2023/01/07 04:01:30;;;;;;;7.93;5.93;;;;;;;9.64;100.00;67839.22;4982556;28;20119;-83
2023/01/07 04:03:55;;;;;;;8.43;6.63;;;;;;;9.66;100.00;67841.47;4977802;28;20049;-83
2023/01/07 04:06:21;;;;;;;7.75;6.18;;;;;;;9.66;100.00;67842.03;4986667;28;20489;-83
2023/01/07 04:08:46;;;;;;;9.57;6.28;;;;;;;;;;4978087;28;20042;-83
2023/01/07 04:11:12;;;;;;;8.55;5.85;;;;;;;;;;4989904;28;20057;-83
2023/01/07 04:13:37;;;;;;;9.65;6.38;;;;;;;9.67;100.00;67842.59;4984264;28;20038;-83
2023/01/07 04:16:03;;;;;;;10.30;6.72;;;;;;;9.68;100.00;67841.06;4986561;28;20108;-83
2023/01/07 04:18:28;;;;;;;7.43;5.93;;;;;;;9.68;100.00;67844.28;4974589;28;20043;-83
2023/01/07 04:20:54;;;;;;;6.72;5.30;;;;;;;;;;4978264;28;20049;-83
2023/01/07 04:23:19;;;;;;;7.38;6.15;;;;;;;;;;4975372;28;20644;-83
2023/01/07 04:25:48;;;;;;;7.30;6.33;;;;;;;9.71;100.00;67847.69;4981444;28;20042;-83
2023/01/07 04:28:14;;;;;;;7.10;5.03;;;;;;;9.73;100.00;67846.19;4981691;28;20288;-83
2023/01/07 04:30:39;;;;;;;8.23;6.40;;;;;;;9.74;100.00;67847.31;4978744;28;20406;-83
2023/01/07 04:33:05;;;;;;;8.02;5.45;;;;;;;9.74;100.00;67849.97;4987555;28;20405;-83
2023/01/07 04:35:31;;;;;;;6.93;4.93;;;;;;;;;;4975835;28;20046;-83
2023/01/07 04:37:56;;;;;;;7.70;5.63;;;;;;;;;;4983906;28;20049;-83
2023/01/07 04:40:22;;;;;;;6.80;5.65;;;;;;;9.79;100.00;67853.00;4985472;28;20046;-83
2023/01/07 04:42:48;;;;;;;7.50;5.53;;;;;;;9.79;100.00;67853.56;4982453;28;20042;-83
2023/01/07 04:45:13;;;;;;;6.25;4.43;;;;;;;9.79;100.00;67860.97;4982714;28;20038;-83
2023/01/07 04:47:38;;;;;;;8.00;4.70;;;;;;;9.79;100.00;67860.97;4985546;28;20039;-83
2023/01/07 04:50:04;;;;;;;6.07;4.72;;;;;;;9.80;100.00;67856.78;4979996;28;20043;-83
2023/01/07 04:52:29;;;;;;;7.72;4.95;;;;;;;9.80;100.00;67857.34;4980450;28;20069;-83
2023/01/07 04:54:55;;;;;;;6.35;4.80;;;;;;;9.80;100.00;67857.34;4981676;28;20031;-83
2023/01/07 04:57:20;;;;;;;6.07;4.63;;;;;;;9.82;100.00;67856.38;4986664;28;20058;-83
2023/01/07 04:59:45;;;;;;;7.00;5.07;;;;;;;;;;4979544;28;20047;-83
2023/01/07 05:02:11;;;;;;;5.40;3.65;;;;;;;9.81;100.00;67857.91;4982225;28;20214;-83
2023/01/07 05:04:36;;;;;;;6.03;4.80;;;;;;;9.80;100.00;67852.03;4981754;28;20046;-83
2023/01/07 05:07:01;;;;;;;6.05;3.70;;;;;;;9.79;100.00;67853.00;4977666;28;20058;-83
2023/01/07 05:09:27;;;;;;;5.72;4.20;;;;;;;;;;4978872;28;20108;-83
2023/01/07 05:11:52;;;;;;;6.93;3.97;;;;;;;;;;4982515;28;20045;-83
2023/01/07 05:14:17;;;;;;;6.60;4.43;;;;;;;;;;4970757;28;20052;-83
2023/01/07 05:16:42;;;;;;;5.97;4.03;;;;;;;;;;4983174;28;20285;-83
2023/01/07 05:19:09;;;;;;;4.70;3.17;;;;;;;9.73;100.00;67854.72;4984131;28;20053;-83
2023/01/07 05:21:34;;;;;;;6.65;3.97;;;;;;;;;;4990581;28;20038;-83
2023/01/07 05:24:00;;;;;;;4.32;3.13;;;;;;;9.71;100.00;67852.44;4980340;28;20100;-83
2023/01/07 05:26:25;;;;;;;4.95;3.25;;;;;;;9.71;100.00;67847.13;4982154;28;20117;-82
2023/01/07 05:28:50;;;;;;;4.38;3.10;;;;;;;9.68;100.00;67844.28;4983837;28;20046;-83
2023/01/07 05:31:16;;;;;;;7.28;4.15;;;;;;;;;;4983213;28;20046;-83
2023/01/07 05:33:41;;;;;;;5.65;3.33;;;;;;;;;;4978849;28;20042;-83
2023/01/07 05:36:07;;;;;;;6.65;3.05;;;;;;;9.66;100.00;67842.03;4977515;28;20105;-83
2023/01/07 05:38:32;;;;;;;4.45;3.17;;;;;;;9.66;100.00;67842.03;4986882;28;20057;-83
2023/01/07 05:40:57;;;;;;;4.55;3.15;;;;;;;9.65;100.00;67840.91;4980957;28;20048;-83
2023/01/07 05:43:23;;;;;;;5.03;3.15;;;;;;;9.61;100.00;67836.38;4987157;28;20065;-82
2023/01/07 05:45:48;;;;;;;7.13;3.00;;;;;;;9.59;100.00;67834.09;4986197;28;20041;-83
2023/01/07 05:48:14;;;;;;;4.82;3.30;;;;;;;9.55;100.00;67829.00;4986676;28;20392;-83
2023/01/07 05:50:39;;;;;;;4.50;3.50;;;;;;;9.54;100.00;67825.75;4982299;28;20065;-83
2023/01/07 05:53:05;;;;;;;6.72;2.60;;;;;;;;;;4988533;28;20108;-83
2023/01/07 05:55:30;;;;;;;3.33;2.75;;;;;;;9.55;100.00;67829.00;4987773;28;20045;-83
2023/01/07 05:57:56;;;;;;;5.95;3.20;;;;;;;9.55;100.00;67829.00;4986559;28;20400;-83
2023/01/07 06:00:21;;;;;;;3.53;2.80;;;;;;;;;;4981224;28;20049;-83
2023/01/07 06:02:46;;;;;;;5.05;2.72;;;;;;;9.52;100.00;67826.16;5005230;28;20037;-83
2023/01/07 06:05:12;;;;;;;4.00;2.58;;;;;;;9.50;100.00;67823.91;4994579;28;20034;-83
2023/01/07 06:07:37;;;;;;;5.72;2.83;;;;;;;;;;4990953;28;20046;-83
2023/01/07 06:10:02;;;;;;;4.07;2.30;;;;;;;9.46;100.00;67819.34;5000180;28;20073;-83
2023/01/07 06:12:29;;;;;;;4.82;3.03;;;;;;;9.46;100.00;67824.66;4988883;28;20047;-83
2023/01/07 06:14:55;;;;;;;3.85;2.53;;;;;;;9.46;100.00;67816.69;4989994;28;20111;-82
2023/01/07 06:17:20;;;;;;;5.00;2.55;;;;;;;;;;4987272;28;20062;-82
2023/01/07 06:19:45;;;;;;;4.93;3.00;;;;;;;9.41;100.00;67819.00;4991147;28;20048;-83
2023/01/07 06:22:10;;;;;;;5.63;2.65;;;;;;;9.41;100.00;67819.00;4987681;28;20353;-82
2023/01/07 06:24:36;;;;;;;6.25;3.00;;;;;;;;;;4990811;28;20041;-82
2023/01/07 06:27:01;;;;;;;6.20;3.13;;;;;;;9.38;100.00;67810.28;4989009;28;20043;-83
2023/01/07 06:29:26;;;;;;;4.45;3.00;;;;;;;;;;4991923;28;20046;-83
2023/01/07 06:31:51;;;;;;;4.68;3.33;;;;;;;;;;4991455;28;20128;-83
2023/01/07 06:34:17;;;;;;;6.40;3.67;;;;;;;9.35;100.00;67807.47;4991358;28;20059;-83
2023/01/07 06:36:42;;;;;;;5.47;3.03;;;;;;;9.32;100.00;67808.78;4990500;28;20052;-83
2023/01/07 06:39:07;;;;;;;6.75;3.70;;;;;;;;;;5016486;28;20191;-82
2023/01/07 06:41:33;;;;;;;6.20;3.23;;;;;;;9.25;100.00;67793.47;5015562;28;20038;-82
2023/01/07 06:43:58;;;;;;;5.15;3.28;;;;;;;;;;4991498;28;20316;-82
2023/01/07 06:46:23;;;;;;;5.50;3.55;;;;;;;9.19;100.00;67789.88;5000246;28;20042;-82
2023/01/07 06:48:49;;;;;;;5.32;3.10;;;;;;;9.13;100.00;67780.44;4987263;28;20047;-82
2023/01/07 06:51:14;;;;;;;6.88;3.63;;;;;;;9.10;100.00;67779.13;4988250;28;20484;-82
2023/01/07 06:53:40;;;;;;;6.60;3.40;;;;;;;9.06;100.00;67775.13;4993406;28;20038;-82
2023/01/07 06:56:05;;;;;;;5.10;4.00;;;;;;;9.02;100.00;67770.63;4992471;28;20043;-82
2023/01/07 06:58:30;;;;;;;7.15;4.22;;;;;;;;;;4994918;28;20046;-82
2023/01/07 07:00:55;;;;;;;6.03;4.10;;;;;;;;;;4985956;28;20069;-82
2023/01/07 07:03:21;;;;;;;7.32;4.13;;;;;;;;;;4996997;28;20361;-82
2023/01/07 07:05:47;;;;;;;5.13;3.55;;;;;;;8.94;100.00;67767.41;4997753;28;20050;-82
2023/01/07 07:08:12;;;;;;;7.03;4.20;;;;;;;;;;4988642;28;20060;-83
2023/01/07 07:10:38;;;;;;;6.05;4.10;;;;;;;8.91;100.00;67758.16;4997892;28;20042;-83
2023/01/07 07:13:03;;;;;;;5.07;3.42;;;;;;;;;;4996108;28;20049;-83
2023/01/07 07:15:29;;;;;;;7.32;4.45;;;;;;;8.89;100.00;67755.88;4994353;28;20054;-83
2023/01/07 07:17:54;;;;;;;6.43;4.50;;;;;;;8.86;100.00;67753.06;5003242;28;20091;-83
2023/01/07 07:20:20;;;;;;;5.68;3.90;;;;;;;8.85;100.00;67759.88;4994993;28;20129;-83
2023/01/07 07:22:46;;;;;;;6.43;4.38;;;;;;;;;;4998088;28;20046;-82
2023/01/07 07:25:11;;;;;;;6.90;4.70;;;;;;;;;;4995751;28;20052;-83
2023/01/07 07:27:36;;;;;;;7.47;3.92;;;;;;;8.82;100.00;67748.53;4999927;28;20465;-83
2023/01/07 07:30:02;;;;;;;6.00;4.75;;;;;;;8.82;100.00;67748.53;4996454;28;20061;-83
2023/01/07 07:32:28;;;;;;;8.07;4.50;;;;;;;8.83;100.00;67749.66;4997286;28;20042;-83
2023/01/07 07:34:56;;;;;;;5.90;4.15;;;;;;;8.83;100.00;67747.00;5006978;28;20050;-83
2023/01/07 07:37:22;;;;;;;7.03;4.22;;;;;;;8.84;100.00;67750.22;4999674;28;20615;-83
2023/01/07 07:39:47;;;;;;;8.13;3.92;;;;;;;8.81;100.00;67747.41;4998961;28;20150;-83
2023/01/07 07:42:12;;;;;;;6.57;4.57;;;;;;;;;;5000656;28;20042;-83
2023/01/07 07:44:38;;;;;;;7.00;4.38;;;;;;;8.84;100.00;67750.78;5002895;28;20086;-83
2023/01/07 07:47:03;;;;;;;7.15;4.30;;;;;;;8.87;100.00;67753.63;5002862;28;20066;-83
2023/01/07 07:49:31;;;;;;;10.32;4.47;;;;;;;8.90;100.00;67751.72;5000583;28;20093;-83
2023/01/07 07:51:56;;;;;;;5.60;3.70;;;;;;;8.92;100.00;67759.28;4998026;28;20058;-83
2023/01/07 07:54:22;;;;;;;6.80;4.18;;;;;;;8.95;100.00;67762.69;4996613;28;28648;-83
2023/01/07 07:56:47;;;;;;;6.20;2.83;;;;;;;;;;5000415;28;20035;-83
2023/01/07 07:59:12;;;;;;;5.32;3.40;;;;;;;;;;5001345;28;20073;-83
2023/01/07 08:01:38;;;;;;;7.30;3.73;;;;;;;9.01;100.00;67769.50;4997435;28;20149;-83
2023/01/07 08:04:07;;;;;;;5.35;3.47;;;;;;;9.02;100.00;67771.19;4997365;28;20357;-83
2023/01/07 08:06:33;;;;;;;4.20;2.92;;;;;;;9.07;100.00;67773.63;4994044;28;20045;-83
2023/01/07 08:08:58;;;;;;;5.05;3.15;;;;;;;;;;4991258;28;20049;-83
2023/01/07 08:11:23;;;;;;;4.75;3.17;;;;;;;;;;5019071;28;20045;-83
2023/01/07 08:13:49;;;;;;;4.32;2.53;;;;;;;9.15;100.00;67785.34;4999055;28;20094;-83
2023/01/07 08:16:14;;;;;;;4.65;2.80;;;;;;;9.19;100.00;67786.66;5005167;28;20501;-83
2023/01/07 08:18:39;;;;;;;6.13;2.63;;;;;;;9.23;100.00;67793.84;4988332;28;20050;-83
2023/01/07 08:21:05;;;;;;;7.75;3.00;;;;;;;;;;5002993;28;20045;-83
2023/01/07 08:23:30;;;;;;;5.35;2.38;;;;;;;9.27;100.00;67798.38;5010572;28;20046;-83
2023/01/07 08:26:01;;;;;;;6.15;2.38;;;;;;;9.30;100.00;67801.22;5018897;28;20731;-83
2023/01/07 08:28:26;;;;;;;5.72;2.38;;;;;;;;;;5011972;28;20049;-82
2023/01/07 08:30:52;;;;;;;5.93;2.90;;;;;;;;;;5000011;28;20108;-83
2023/01/07 08:33:17;;;;;;;4.53;2.53;;;;;;;;;;5015600;28;20053;-83
2023/01/07 08:35:43;;;;;;;5.80;2.50;;;;;;;9.37;100.00;67809.16;4996800;28;20089;-83
2023/01/07 08:38:08;;;;;;;3.95;2.10;;;;;;;9.38;100.00;67810.88;4988649;28;20529;-83
2023/01/07 08:40:34;;;;;;;5.35;2.47;;;;;;;;;;4990128;28;20121;-82
2023/01/07 08:43:01;;;;;;;5.00;2.33;;;;;;;9.39;100.00;67808.78;5000910;28;20192;-83
2023/01/07 08:45:27;;;;;;;7.07;2.88;;;;;;;9.41;100.00;67814.25;5000215;28;20038;-82
2023/01/07 08:47:56;;;;;;;4.40;2.60;;;;;;;9.41;100.00;67814.25;4993437;28;20042;-82
2023/01/07 08:50:23;;;;;;;4.85;3.15;;;;;;;9.42;100.00;67812.16;4995067;28;20038;-82
2023/01/07 08:52:48;;;;;;;6.85;3.13;;;;;;;9.43;100.00;67815.94;4996264;28;20602;-82
2023/01/07 08:55:14;;;;;;;6.90;2.95;;;;;;;9.44;100.00;67817.09;4995547;28;20047;-82
2023/01/07 08:57:39;;;;;;;4.53;2.40;;;;;;;9.46;100.00;67819.91;4993819;28;20046;-82
2023/01/07 09:00:05;;;;;;;5.43;3.50;;;;;;;9.47;100.00;67818.41;4992289;28;20073;-82
2023/01/07 09:02:31;;;;;;;6.72;3.28;;;;;;;;;;4996991;28;20490;-82
2023/01/07 09:04:56;;;;;;;4.72;3.08;;;;;;;9.48;100.00;67821.63;4994617;28;20045;-82
2023/01/07 09:07:24;;;;;;;6.45;2.88;;;;;;;;;;4996141;28;20046;-82
2023/01/07 09:09:50;;;;;;;5.35;3.65;;;;;;;9.48;100.00;67821.63;4994777;28;20297;-82
2023/01/07 09:12:15;;;;;;;5.72;3.33;;;;;;;;;;4994022;28;20057;-82
2023/01/07 09:14:40;;;;;;;4.57;2.55;;;;;;;9.52;100.00;67831.47;4996009;28;20042;-82
2023/01/07 09:17:05;;;;;;;8.57;3.15;;;;;;;9.52;100.00;67826.16;4989155;28;20046;-82
2023/01/07 09:19:31;;;;;;;4.10;2.75;;;;;;;9.53;100.00;67827.31;5009805;28;20046;-82
2023/01/07 09:21:56;;;;;;;4.20;2.90;;;;;;;9.54;100.00;67828.44;4993286;28;20046;-82
2023/01/07 09:24:22;;;;;;;3.92;2.42;;;;;;;9.55;100.00;67829.00;4986926;28;20252;-82
2023/01/07 09:26:47;;;;;;;4.28;2.50;;;;;;;9.58;100.00;67832.97;4998330;28;20045;-82
2023/01/07 09:29:12;;;;;;;5.28;2.58;;;;;;;9.59;100.00;67834.09;4991998;28;20759;-82
2023/01/07 09:31:38;;;;;;;5.63;2.60;;;;;;;;;;4998845;28;20105;-82
2023/01/07 09:34:04;;;;;;;5.03;2.58;;;;;;;9.64;100.00;67839.78;4991493;28;20056;-82
2023/01/07 09:36:29;;;;;;;3.15;2.40;;;;;;;9.67;100.00;67840.50;4993476;28;20060;-82
2023/01/07 09:38:54;;;;;;;6.60;2.53;;;;;;;9.70;100.00;67846.00;5000142;28;20100;-82
2023/01/07 09:41:58;;;;;;;5.20;2.30;;;;;;;9.73;100.00;67848.84;4993489;28;20034;-82
2023/01/07 09:44:23;;;;;;;3.53;2.38;;;;;;;;;;4968158;28;20047;-82
2023/01/07 09:46:50;;;;;;;4.90;2.30;;;;;;;9.75;100.00;67851.66;4963650;28;20120;-82
2023/01/07 09:49:18;;;;;;;4.10;2.08;;;;;;;9.79;100.00;67853.00;4971840;28;20289;-82
2023/01/07 09:52:04;;;;;;;4.10;2.25;;;;;;;9.82;100.00;67856.38;4981796;28;20058;-82
2023/01/07 09:54:32;;;;;;;3.38;2.50;;;;;;;;;;4989540;28;20061;-82
2023/01/07 09:56:57;;;;;;;7.03;2.47;;;;;;;;;;4979768;28;20038;-82
2023/01/07 09:59:23;;;;;;;4.50;2.38;;;;;;;;;;4985785;28;20106;-82
2023/01/07 10:02:18;;;;;;;4.85;2.70;;;;;;;;;;4990433;28;20050;-82
2023/01/07 10:04:53;;;;;;;5.53;2.38;;;;;;;9.90;100.00;67868.13;4999311;28;20051;-82
2023/01/07 10:07:24;;;;;;;4.03;2.17;;;;;;;9.91;100.00;67869.81;4984974;28;20448;-82
2023/01/07 10:10:03;;;;;;;3.60;2.20;;;;;;;9.92;100.00;67870.38;4989455;28;20049;-82
2023/01/07 10:12:59;;;;;;;4.63;2.10;;;;;;;9.92;100.00;67867.72;4984149;28;20038;-82
2023/01/07 10:15:46;;;;;;;3.05;1.70;;;;;;;9.92;100.00;67867.72;4985701;28;20058;-82
2023/01/07 10:18:25;;;;;;;3.83;2.30;;;;;;;9.92;100.00;67870.94;4984274;28;20050;-82
2023/01/07 10:20:59;;;;;;;5.38;2.33;;;;;;;9.96;100.00;67874.38;4986661;28;20042;-82
2023/01/07 10:23:30;;;;;;;4.32;1.85;;;;;;;9.97;100.00;67875.50;4985398;28;20527;-82
2023/01/07 10:25:58;;;;;;;2.97;1.63;;;;;;;9.97;100.00;67872.84;4981218;28;20066;-82
2023/01/07 10:28:32;;;;;;;4.32;2.05;;;;;;;9.97;100.00;67872.84;4980705;28;20038;-82
2023/01/07 10:31:00;;;;;;;3.80;2.13;;;;;;;9.97;100.00;67873.41;4988108;28;20490;-82
2023/01/07 10:33:28;;;;;;;3.00;2.00;;;;;;;9.97;100.00;67881.38;4981161;28;20073;-82
2023/01/07 10:36:07;;;;;;;4.32;2.08;;;;;;;9.98;100.00;67877.19;4991043;28;20054;-82
2023/01/07 10:38:36;;;;;;;3.13;1.60;;;;;;;9.99;100.00;67877.75;4980750;28;20414;-82
2023/01/07 10:41:20;;;;;;;2.75;1.90;;;;;;;9.97;100.00;67876.06;4977528;28;20051;-82
2023/01/07 10:44:30;;;;;;;2.90;1.95;;;;;;;9.99;100.00;67878.31;4993528;28;20048;-82
2023/01/07 10:47:19;;;;;;;6.75;3.42;;;;;;;9.97;100.00;67876.06;5010687;28;20629;-82
2023/01/07 10:49:44;;;;;;;5.43;2.53;;;;;;;;;;4985274;28;20134;-82
2023/01/07 10:52:25;;;;;;;5.43;2.63;;;;;;;;;;4989300;28;20128;-82
2023/01/07 10:55:23;;;;;;;6.72;2.92;;;;;;;10.02;100.00;67878.50;4986154;28;20828;-82
2023/01/07 10:57:48;;;;;;;6.75;3.22;;;;;;;;;;4978130;28;20081;-83
2023/01/07 11:00:16;;;;;;;7.47;4.45;;;;;;;10.04;100.00;67884.00;4987775;28;20058;-83
2023/01/07 11:02:49;;;;;;;7.13;3.50;;;;;;;10.07;100.00;67887.41;4988988;28;20100;-83
2023/01/07 11:05:17;;;;;;;6.43;3.53;;;;;;;10.09;100.00;67889.66;4983460;28;20053;-82
2023/01/07 11:07:55;;;;;;;4.85;2.45;;;;;;;10.12;100.00;67893.06;4996349;28;20494;-83
2023/01/07 11:10:24;;;;;;;5.25;2.25;;;;;;;10.18;100.00;67893.97;4979419;28;20054;-83
2023/01/07 11:12:56;;;;;;;3.88;2.15;;;;;;;10.21;100.00;67902.69;4982694;28;20039;-83
2023/01/07 11:15:26;;;;;;;4.53;2.00;;;;;;;10.23;100.00;67899.09;4984942;28;20046;-82
2023/01/07 11:17:55;;;;;;;3.20;1.80;;;;;;;10.23;100.00;67904.41;4988388;28;20077;-82
2023/01/07 11:20:39;;;;;;;2.17;1.50;;;;;;;;;;4988300;28;20049;-83
2023/01/07 11:23:18;;;;;;;2.78;1.40;;;;;;;10.31;100.00;67914.06;4995408;28;20042;-83
2023/01/07 11:25:45;;;;;;;2.72;1.67;;;;;;;10.38;100.00;67921.44;5003954;28;20413;-83
2023/01/07 11:28:17;;;;;;;2.78;1.70;;;;;;;;;;4985893;28;20043;-83
2023/01/07 11:30:43;;;;;;;4.03;1.90;;;;;;;10.49;100.00;67933.94;4991344;28;20053;-83
2023/01/07 11:33:21;;;;;;;3.70;1.70;;;;;;;10.55;100.00;67937.50;5002389;28;20043;-83
2023/01/07 11:35:51;;;;;;;3.97;1.60;;;;;;;10.61;100.00;67955.53;4963176;28;20047;-83
2023/01/07 11:38:26;;;;;;;1.92;1.20;;;;;;;;;;4989764;28;20052;-83
2023/01/07 11:40:56;;;;;;;2.20;1.40;;;;;;;10.72;100.00;67959.47;4988714;28;20077;-83
2023/01/07 11:43:23;;;;;;;4.50;1.67;;;;;;;10.73;100.00;67957.94;4992450;28;20042;-83
2023/01/07 11:45:49;;;;;;;3.05;1.27;;;;;;;;;;4987940;28;20038;-83
2023/01/07 11:48:36;;;;;;;4.43;1.50;;;;;;;10.82;100.00;67967.59;4985711;28;20050;-82
2023/01/07 11:51:09;;;;;;;2.25;1.50;;;;;;;10.85;100.00;67973.66;4988486;28;20046;-83
2023/01/07 11:53:37;;;;;;;3.45;2.05;;;;;;;10.87;100.00;67981.25;4987838;28;20038;-83
2023/01/07 11:56:08;;;;;;;2.45;1.60;;;;;;;;;;4989278;28;20034;-83
2023/01/07 11:58:35;;;;;;;3.92;2.00;;;;;;;;;;4990475;28;20053;-83
2023/01/07 12:01:01;;;;;;;3.40;2.20;;;;;;;10.95;100.00;67984.44;4987727;28;20938;-83
2023/01/07 12:03:27;;;;;;;3.42;1.95;;;;;;;10.96;100.00;67983.47;4988169;28;20043;-83
2023/01/07 12:05:56;;;;;;;3.13;1.92;;;;;;;10.95;100.00;67982.34;4989523;28;20112;-83
2023/01/07 12:08:22;;;;;;;2.70;1.30;;;;;;;;;;4981844;28;20058;-83
2023/01/07 12:10:53;;;;;;;2.72;1.20;;;;;;;;;;4988781;28;20506;-83
2023/01/07 12:13:22;;;;;;;3.13;1.40;;;;;;;11.01;100.00;67996.56;4987145;28;20145;-83
2023/01/07 12:15:47;;;;;;;;;;;;;;;;;;4990833;28;20112;-83
2023/01/07 12:18:46;;;;;;;3.40;1.40;;;;;;;10.91;100.00;67985.78;4988077;28;20648;-83
2023/01/07 12:21:30;;;;;;;2.00;1.17;;;;;;;;;;4997151;28;20498;-83
2023/01/07 12:24:04;;;;;;;3.45;1.88;;;;;;;10.95;100.00;67985.00;4991051;28;20050;-83
2023/01/07 12:26:47;;;;;;;4.82;2.20;;;;;;;10.98;100.00;67988.41;4994001;28;20054;-83
2023/01/07 12:29:30;;;;;;;3.38;1.77;;;;;;;10.96;100.00;67985.56;5005795;28;20058;-83
2023/01/07 12:32:20;;;;;;;5.30;2.60;;;;;;;11.02;100.00;67992.94;4992634;28;20251;-84
2023/01/07 12:35:02;;;;;;;4.38;2.55;;;;;;;11.03;100.00;67994.06;4996500;28;20045;-84